createdAt,value
2022-09-11T00:03:42.962Z,18.1
2022-09-11T00:09:53.387Z,18.2
2022-09-11T00:16:04.144Z,18.3
2022-09-11T00:22:06.485Z,18.3
2022-09-11T00:28:17.194Z,18.3
2022-09-11T00:34:27.838Z,18.4
2022-09-11T00:40:38.521Z,18.4
2022-09-11T00:46:49.340Z,18.4
2022-09-11T00:52:02.093Z,18.5
2022-09-11T00:58:12.758Z,18.5
2022-09-11T01:04:23.418Z,18.3
2022-09-11T01:10:34.071Z,18.3
2022-09-11T01:16:44.750Z,18.4
2022-09-11T01:22:47.271Z,18.3
2022-09-11T01:30:12.131Z,18.3
2022-09-11T01:36:22.708Z,18.3
2022-09-11T01:42:33.394Z,18.4
2022-09-11T01:48:44.043Z,18.3
2022-09-11T01:54:54.708Z,18.3
2022-09-11T02:01:05.419Z,18.4
2022-09-11T02:07:16.034Z,18.4
2022-09-11T02:13:27.902Z,18.3
2022-09-11T02:19:37.398Z,18.2
2022-09-11T02:25:39.834Z,18.3
2022-09-11T02:31:50.532Z,18.3
2022-09-11T02:38:01.193Z,18.4
2022-09-11T02:44:11.831Z,18.3
2022-09-11T02:50:22.493Z,18.3
2022-09-11T02:56:33.186Z,18.3
2022-09-11T03:02:43.810Z,18.3
2022-09-11T03:08:54.501Z,18.3
2022-09-11T03:15:05.177Z,18.2
2022-09-11T03:21:24.041Z,18.2
2022-09-11T03:27:34.712Z,18.2
2022-09-11T03:33:45.386Z,18.3
2022-09-11T03:39:56.134Z,18.2
2022-09-11T03:46:06.761Z,18.2
2022-09-11T03:52:17.385Z,18.2
2022-09-11T03:58:28.133Z,18.2
2022-09-11T04:03:32.789Z,18.2
2022-09-11T04:09:43.462Z,18.1
2022-09-11T04:15:54.089Z,18.1
2022-09-11T04:21:56.584Z,18.1
2022-09-11T04:28:07.289Z,18.1
2022-09-11T04:34:17.949Z,18.1
2022-09-11T04:40:28.596Z,17.8
2022-09-11T04:46:39.243Z,17.9
2022-09-11T04:52:49.891Z,17.9
2022-09-11T04:59:00.560Z,17.9
2022-09-11T05:05:11.250Z,18
2022-09-11T05:11:21.894Z,18.1
2022-09-11T05:17:32.556Z,18.2
2022-09-11T05:24:49.204Z,18.2
2022-09-11T05:30:59.833Z,18.2
2022-09-11T05:37:10.506Z,18.2
2022-09-11T05:43:21.205Z,18.1
2022-09-11T05:48:34.102Z,18.1
2022-09-11T05:54:44.758Z,18
2022-09-11T06:00:55.462Z,17.9
2022-09-11T06:07:06.089Z,17.9
2022-09-11T06:13:16.771Z,18.1
2022-09-11T06:19:27.461Z,18.2
2022-09-11T06:25:29.929Z,18.2
2022-09-11T06:31:40.613Z,18.3
2022-09-11T06:37:51.279Z,18.3
2022-09-11T06:44:01.906Z,18.3
2022-09-11T06:50:12.553Z,18.3
2022-09-11T06:56:23.273Z,18.5
2022-09-11T07:02:33.911Z,18.6
2022-09-11T07:08:44.580Z,18.7
2022-09-11T07:14:55.258Z,18.7
2022-09-11T07:21:05.910Z,18.9
2022-09-11T07:27:08.389Z,18.9
2022-09-11T07:33:19.056Z,19
2022-09-11T07:39:29.730Z,19
2022-09-11T07:45:40.475Z,19
2022-09-11T07:51:51.078Z,19.1
2022-09-11T07:58:01.725Z,19.2
2022-09-11T08:04:12.388Z,19.4
2022-09-11T08:09:17.144Z,19.4
2022-09-11T08:15:27.789Z,19.4
2022-09-11T08:20:40.688Z,19.3
2022-09-11T08:26:48.124Z,19.3
2022-09-11T08:32:53.841Z,19.5
2022-09-11T08:39:04.522Z,19.5
2022-09-11T08:45:15.179Z,19.5
2022-09-11T08:51:25.845Z,19.7
2022-09-11T08:57:36.492Z,19.6
2022-09-11T09:03:47.205Z,19.6
2022-09-11T09:09:57.820Z,19.5
2022-09-11T09:16:08.561Z,19.7
2022-09-11T09:22:19.190Z,20.1
2022-09-11T09:28:21.637Z,21.4
2022-09-11T09:34:32.282Z,22.9
2022-09-11T09:40:43.002Z,23
2022-09-11T09:46:53.636Z,22.9
2022-09-11T09:53:04.306Z,22.7
2022-09-11T09:59:14.979Z,22.3
2022-09-11T10:05:25.643Z,22.9
2022-09-11T10:11:36.305Z,23.3
2022-09-11T10:17:47.051Z,23.2
2022-09-11T10:25:03.601Z,23.3
2022-09-11T10:31:14.279Z,24
2022-09-11T10:37:24.985Z,24
2022-09-11T10:43:35.566Z,23.9
2022-09-11T10:48:48.521Z,23.7
2022-09-11T10:54:59.224Z,24.5
2022-09-11T11:01:09.871Z,25.2
2022-09-11T11:07:20.505Z,25.4
2022-09-11T11:13:31.197Z,24.4
2022-09-11T11:19:41.862Z,24.3
2022-09-11T11:25:44.305Z,24.1
2022-09-11T11:31:54.989Z,24.3
2022-09-11T11:38:05.664Z,24.5
2022-09-11T11:44:16.360Z,23.9
2022-09-11T11:50:31.133Z,23.9
2022-09-11T11:56:37.646Z,24.1
2022-09-11T12:02:48.307Z,24.1
2022-09-11T12:08:59.013Z,24.2
2022-09-11T12:15:09.738Z,24
2022-09-11T12:20:14.392Z,24.1
2022-09-11T12:26:25.081Z,24.5
2022-09-11T12:32:27.542Z,24.3
2022-09-11T12:38:38.191Z,24
2022-09-11T12:44:48.892Z,24.3
2022-09-11T12:50:59.525Z,23.8
2022-09-11T12:57:10.211Z,23.5
2022-09-11T13:03:20.888Z,23.2
2022-09-11T13:09:31.565Z,22.9
2022-09-11T13:15:42.292Z,23.1
2022-09-11T13:22:09.301Z,23
2022-09-11T13:28:14.428Z,23.2
2022-09-11T13:34:22.416Z,23.5
2022-09-11T13:41:47.206Z,23.5
2022-09-11T13:47:57.876Z,23.3
2022-09-11T13:54:08.524Z,23.3
2022-09-11T14:00:19.225Z,22.7
2022-09-11T14:06:29.874Z,23.2
2022-09-11T14:12:40.546Z,23.5
2022-09-11T14:18:51.228Z,23.4
2022-09-11T14:25:01.874Z,22.9
2022-09-11T14:31:04.383Z,23.1
2022-09-11T14:37:15.017Z,23.1
2022-09-11T14:43:25.658Z,23
2022-09-11T14:49:36.348Z,23.3
2022-09-11T14:55:47.057Z,23.4
2022-09-11T15:03:11.959Z,23.2
2022-09-11T15:09:22.481Z,23.1
2022-09-11T15:15:33.202Z,23.1
2022-09-11T15:21:43.838Z,23.2
2022-09-11T15:27:46.306Z,22.9
2022-09-11T15:33:56.988Z,22.6
2022-09-11T15:40:07.648Z,22.6
2022-09-11T15:46:18.426Z,22.6
2022-09-11T15:51:31.252Z,22.8
2022-09-11T15:57:41.866Z,22.7
2022-09-11T16:03:52.541Z,22.7
2022-09-11T16:10:03.229Z,22.6
2022-09-11T16:16:13.928Z,22.5
2022-09-11T16:22:24.560Z,22.6
2022-09-11T16:28:35.225Z,22.6
2022-09-11T16:34:45.904Z,22.3
2022-09-11T16:40:56.539Z,22.3
2022-09-11T16:47:07.261Z,22.4
2022-09-11T16:53:17.904Z,22.3
2022-09-11T16:59:28.564Z,22
2022-09-11T17:05:39.237Z,22
2022-09-11T17:11:49.907Z,21.9
2022-09-11T17:18:00.567Z,21.8
2022-09-11T17:24:11.249Z,21.8
2022-09-11T17:30:13.714Z,21.6
2022-09-11T17:36:24.360Z,21.2
2022-09-11T17:42:35.046Z,21.1
2022-09-11T17:48:46.027Z,20.9
2022-09-11T17:54:56.378Z,20.8
2022-09-11T18:01:07.086Z,20.6
2022-09-11T18:07:17.708Z,20.3
2022-09-11T18:13:28.388Z,19.9
2022-09-11T18:18:41.396Z,19.9
2022-09-11T18:24:51.942Z,19.8
2022-09-11T18:32:10.081Z,19.8
2022-09-11T18:38:19.254Z,19.7
2022-09-11T18:44:29.897Z,19.4
2022-09-11T18:50:40.569Z,19.3
2022-09-11T18:56:51.243Z,19.3
2022-09-11T19:03:01.904Z,19.1
2022-09-11T19:09:12.572Z,19
2022-09-11T19:15:23.239Z,18.7
2022-09-11T19:21:33.890Z,18.5
2022-09-11T19:27:44.580Z,18.3
2022-09-11T19:33:47.056Z,18.6
2022-09-11T19:39:57.776Z,18.6
2022-09-11T19:47:22.510Z,18.5
2022-09-11T19:53:33.185Z,18.4
2022-09-11T19:59:43.830Z,18.3
2022-09-11T20:05:54.520Z,18.3
2022-09-11T20:12:05.220Z,18.3
2022-09-11T20:18:15.857Z,18.1
2022-09-11T20:24:26.501Z,18
2022-09-11T20:30:28.993Z,18
2022-09-11T20:35:33.716Z,17.9
2022-09-11T20:41:44.378Z,17.9
2022-09-11T20:48:11.480Z,17.7
2022-09-11T20:54:22.089Z,17.8
2022-09-11T21:00:32.862Z,17.7
2022-09-11T21:06:43.440Z,17.6
2022-09-11T21:12:54.083Z,17.6
2022-09-11T21:19:04.759Z,17.5
2022-09-11T21:25:15.452Z,17.3
2022-09-11T21:31:26.192Z,17.3
2022-09-11T21:37:28.561Z,17.2
2022-09-11T21:43:39.274Z,17
2022-09-11T21:49:49.906Z,17.2
2022-09-11T21:57:14.679Z,17.1
2022-09-11T22:03:25.369Z,17
2022-09-11T22:09:36.034Z,17
2022-09-11T22:15:46.698Z,17
2022-09-11T22:21:57.431Z,16.9
2022-09-11T22:28:08.025Z,16.9
2022-09-11T22:35:24.640Z,16.6
2022-09-11T22:41:35.329Z,16.5
2022-09-11T22:47:45.981Z,16.4
2022-09-11T22:53:56.634Z,16.4
2022-09-11T23:00:07.315Z,16.4
2022-09-11T23:06:17.962Z,16.1
2022-09-11T23:12:28.642Z,16.2
2022-09-11T23:17:41.582Z,15.9
2022-09-11T23:23:54.558Z,16
2022-09-11T23:30:02.871Z,15.9
2022-09-11T23:36:05.415Z,15.9
2022-09-11T23:42:16.029Z,15.9
2022-09-11T23:48:26.714Z,15.9
2022-09-11T23:54:37.395Z,15.9
